Time;durP1;ratioP1;P1;durP2;ratioP2;P2;SDS_P1;SDS_P2;PMS_P1;PMS_P2;Temp;Humidity;BMP_temperature;BMP_pressure;BME280_temperature;BME280_humidity;BME280_pressure;Samples;Min_cycle;Max_cycle;Signal;HPM_P1;HPM_P2
2022/12/15 00:39:09;;;;;;;71.65;35.53;;;-2.10;99.90;;;;;;5047015;28;20044;-69
2022/12/15 00:41:35;;;;;;;67.72;34.83;;;-2.00;99.90;;;;;;5047399;28;20032;-69
2022/12/15 00:44:00;;;;;;;71.68;36.72;;;-2.10;99.90;;;;;;5049942;28;20571;-69
2022/12/15 00:50:50;;;;;;;73.70;36.63;;;-2.00;99.90;;;;;;5042785;28;20075;-69
2022/12/15 01:22:01;;;;;;;76.47;37.63;;;-2.10;99.90;;;;;;5051400;28;20047;-71
2022/12/15 01:24:27;;;;;;;73.38;35.85;;;-2.20;99.90;;;;;;5053365;28;20115;-68
2022/12/15 01:26:53;;;;;;;74.93;35.83;;;-2.20;99.90;;;;;;5050674;28;20074;-67
2022/12/15 01:29:19;;;;;;;77.35;36.28;;;-2.10;99.90;;;;;;5033141;28;20022;-68
2022/12/15 01:31:45;;;;;;;76.10;37.08;;;-2.20;99.90;;;;;;5032573;28;20440;-68
2022/12/15 01:34:10;;;;;;;76.32;36.70;;;-2.10;99.90;;;;;;5032713;28;20044;-68
2022/12/15 01:36:36;;;;;;;72.72;36.25;;;-2.10;99.90;;;;;;5032252;28;20400;-68
2022/12/15 01:39:01;;;;;;;70.35;34.65;;;-2.20;99.90;;;;;;5035850;28;20029;-68
2022/12/15 01:41:28;;;;;;;72.80;37.42;;;-2.20;99.90;;;;;;5031305;28;20502;-69
2022/12/15 01:43:54;;;;;;;76.20;35.35;;;-2.20;99.90;;;;;;5031605;28;20056;-69
2022/12/15 01:46:22;;;;;;;77.45;38.25;;;-2.20;99.90;;;;;;5033941;28;20053;-69
2022/12/15 01:49:07;;;;;;;69.40;35.65;;;-2.20;99.90;;;;;;5033149;28;20021;-69
2022/12/15 01:51:36;;;;;;;77.95;38.05;;;-2.20;99.90;;;;;;5030260;28;20534;-68
2022/12/15 01:54:18;;;;;;;77.15;37.78;;;-2.20;99.90;;;;;;5031842;28;20030;-68
2022/12/15 01:56:48;;;;;;;72.53;36.85;;;-2.10;99.90;;;;;;5032680;28;20029;-69
2022/12/15 01:59:22;;;;;;;79.47;37.30;;;-2.20;99.90;;;;;;5030599;28;20439;-68
2022/12/15 02:01:47;;;;;;;81.13;37.58;;;-2.10;99.90;;;;;;5031817;28;20030;-68
2022/12/15 02:04:15;;;;;;;77.18;35.63;;;-2.00;99.90;;;;;;5034659;28;20080;-68
2022/12/15 02:06:40;;;;;;;78.40;37.65;;;-2.10;99.90;;;;;;5031543;28;20086;-68
2022/12/15 02:09:06;;;;;;;76.70;35.97;;;-2.10;99.90;;;;;;5032646;28;20029;-68
2022/12/15 02:11:56;;;;;;;72.63;34.80;;;-2.10;99.90;;;;;;5031528;28;20035;-68
2022/12/15 02:15:01;;;;;;;77.97;36.75;;;-2.10;99.90;;;;;;5029356;28;20033;-69
2022/12/15 02:17:26;;;;;;;74.95;36.58;;;-2.20;99.90;;;;;;5022185;28;20084;-68
2022/12/15 02:19:58;;;;;;;73.13;35.92;;;-2.20;99.90;;;;;;5032658;28;20021;-68
2022/12/15 02:22:49;;;;;;;79.60;36.35;;;-2.20;99.90;;;;;;5031188;28;20104;-68
2022/12/15 02:25:33;;;;;;;77.50;36.88;;;-2.20;99.90;;;;;;5029429;28;20402;-68
2022/12/15 02:28:09;;;;;;;75.65;36.35;;;-2.20;99.90;;;;;;5048073;28;20432;-69
2022/12/15 02:30:39;;;;;;;71.07;34.42;;;-2.20;99.90;;;;;;5052540;28;20146;-68
2022/12/15 02:33:15;;;;;;;;;;;-2.20;99.90;;;;;;5052302;28;20021;-68
2022/12/15 02:35:52;;;;;;;74.80;34.63;;;-2.10;99.90;;;;;;5049053;28;19993;-68
2022/12/15 02:38:36;;;;;;;82.15;36.75;;;-2.20;99.90;;;;;;5052622;28;20071;-69
2022/12/15 02:41:03;;;;;;;81.40;37.83;;;-2.20;99.90;;;;;;5050957;28;20029;-68
2022/12/15 02:43:33;;;;;;;77.15;36.22;;;-2.20;99.90;;;;;;5050902;28;20526;-69
2022/12/15 02:46:13;;;;;;;74.95;36.35;;;-2.10;99.90;;;;;;5050415;28;20742;-68
2022/12/15 02:49:02;;;;;;;72.57;34.42;;;-2.10;99.90;;;;;;5048537;28;20577;-68
2022/12/15 02:51:49;;;;;;;75.00;35.53;;;-2.10;99.90;;;;;;5049941;28;20036;-69
2022/12/15 02:54:25;;;;;;;75.35;36.42;;;-2.10;99.90;;;;;;5049013;28;20090;-69
2022/12/15 02:57:10;;;;;;;74.82;35.80;;;-2.20;99.90;;;;;;5048973;28;20032;-69
2022/12/15 02:59:54;;;;;;;77.18;36.53;;;-2.30;99.90;;;;;;5049493;28;20021;-69
2022/12/15 03:02:23;;;;;;;73.20;35.25;;;-2.30;99.90;;;;;;5049643;28;20033;-69
2022/12/15 03:04:49;;;;;;;75.13;36.17;;;-2.30;99.90;;;;;;5058199;28;20470;-68
2022/12/15 03:07:15;;;;;;;82.72;37.40;;;-2.20;99.90;;;;;;5052415;28;20060;-68
2022/12/15 03:09:41;;;;;;;80.95;37.20;;;-2.20;99.90;;;;;;5052095;28;20686;-69
2022/12/15 03:12:07;;;;;;;76.18;36.08;;;-2.20;99.90;;;;;;5052287;28;20032;-68
2022/12/15 03:14:33;;;;;;;79.57;37.08;;;-2.30;99.90;;;;;;5051291;28;20029;-68
2022/12/15 03:16:59;;;;;;;83.68;39.55;;;-2.30;99.90;;;;;;5052433;28;20086;-68
2022/12/15 03:19:24;;;;;;;75.38;35.15;;;-2.20;99.90;;;;;;5051903;28;20021;-69
2022/12/15 03:21:51;;;;;;;79.28;38.10;;;-2.20;99.90;;;;;;5052769;28;20040;-69
2022/12/15 03:24:17;;;;;;;89.50;40.00;;;-2.20;99.90;;;;;;5051965;28;20029;-69
2022/12/15 03:26:42;;;;;;;91.85;40.25;;;-2.30;99.90;;;;;;5051021;28;20036;-69
2022/12/15 03:29:08;;;;;;;86.65;37.85;;;-2.30;99.90;;;;;;5052724;28;20378;-68
2022/12/15 03:31:34;;;;;;;80.43;37.67;;;-2.30;99.90;;;;;;5051248;28;20032;-69
2022/12/15 03:33:59;;;;;;;75.72;35.72;;;-2.30;99.90;;;;;;5051107;28;20040;-68
2022/12/15 03:36:25;;;;;;;74.30;37.42;;;-2.30;99.90;;;;;;5053845;28;20032;-68
2022/12/15 03:38:50;;;;;;;78.47;36.65;;;-2.30;99.90;;;;;;5052442;28;20029;-68
2022/12/15 03:41:19;;;;;;;77.05;36.38;;;-2.30;99.90;;;;;;5052250;28;20060;-69
2022/12/15 03:43:48;;;;;;;77.32;35.67;;;-2.30;99.90;;;;;;5051458;28;20101;-68
2022/12/15 03:46:13;;;;;;;77.60;37.10;;;-2.30;99.90;;;;;;5050487;28;20390;-69
2022/12/15 03:48:39;;;;;;;76.57;36.20;;;-2.40;99.90;;;;;;5057302;28;20035;-68
2022/12/15 03:51:04;;;;;;;72.22;35.80;;;-2.40;99.90;;;;;;5052379;28;20413;-67
2022/12/15 03:53:30;;;;;;;79.57;37.25;;;-2.40;99.90;;;;;;5057263;28;20114;-68
2022/12/15 03:55:55;;;;;;;77.70;36.30;;;-2.40;99.90;;;;;;5051013;28;20032;-69
2022/12/15 03:58:21;;;;;;;77.60;37.20;;;-2.40;99.90;;;;;;5050867;28;20039;-70
2022/12/15 04:00:47;;;;;;;72.00;34.38;;;-2.40;99.90;;;;;;5051954;28;20054;-69
2022/12/15 04:03:13;;;;;;;73.82;35.00;;;-2.40;99.90;;;;;;5051615;28;20024;-69
2022/12/15 04:05:38;;;;;;;74.18;35.67;;;-2.40;99.90;;;;;;5050157;28;20035;-68
2022/12/15 04:08:04;;;;;;;76.72;36.95;;;-2.40;99.90;;;;;;5051381;28;20033;-69
2022/12/15 04:10:32;;;;;;;77.68;37.85;;;-2.40;99.90;;;;;;5059462;28;20148;-68
2022/12/15 04:13:05;;;;;;;73.55;35.17;;;-2.30;99.90;;;;;;5051353;28;20035;-68
2022/12/15 04:15:32;;;;;;;72.68;34.20;;;-2.30;99.90;;;;;;5048439;28;20028;-69
2022/12/15 04:18:01;;;;;;;74.13;34.58;;;-2.30;99.90;;;;;;5053396;28;20048;-68
2022/12/15 04:20:26;;;;;;;70.82;34.30;;;-2.20;99.90;;;;;;5050740;28;20113;-68
2022/12/15 04:22:52;;;;;;;77.90;34.80;;;-2.20;99.90;;;;;;5051164;28;20449;-69
2022/12/15 05:34:15;;;;;;;78.45;36.17;;;-2.30;99.90;;;;;;5050402;28;20040;-69
2022/12/15 05:36:41;;;;;;;83.43;36.42;;;-2.30;99.90;;;;;;5050251;28;20024;-72
2022/12/15 05:39:06;;;;;;;77.20;36.95;;;-2.30;99.90;;;;;;5050659;28;20535;-72
2022/12/15 05:41:32;;;;;;;72.38;34.55;;;-2.40;99.90;;;;;;5047995;28;20580;-74
2022/12/15 05:43:57;;;;;;;83.18;37.85;;;-2.40;99.90;;;;;;5032505;28;20078;-71
2022/12/15 05:46:23;;;;;;;81.22;37.58;;;-2.40;99.90;;;;;;5051730;28;20035;-70
2022/12/15 05:48:49;;;;;;;81.57;37.72;;;-2.40;99.90;;;;;;5064347;28;20040;-69
2022/12/15 05:51:14;;;;;;;86.78;39.28;;;-2.30;99.90;;;;;;5054890;28;20025;-70
2022/12/15 05:53:41;;;;;;;78.95;36.38;;;-2.30;99.90;;;;;;5041909;28;20051;-69
2022/12/15 05:56:12;;;;;;;79.95;35.20;;;-2.30;99.90;;;;;;5054107;28;20541;-69
2022/12/15 05:58:38;;;;;;;80.50;36.92;;;-2.30;99.90;;;;;;5052525;28;20090;-69
2022/12/15 06:01:06;;;;;;;79.05;36.85;;;-2.30;99.90;;;;;;5054098;28;20521;-69
2022/12/15 06:03:32;;;;;;;83.03;38.28;;;-2.30;99.90;;;;;;5051887;28;20029;-69
2022/12/15 06:05:59;;;;;;;78.82;36.30;;;-2.30;99.90;;;;;;5053067;28;20025;-69
2022/12/15 06:08:27;;;;;;;79.30;38.28;;;-2.30;99.90;;;;;;5052858;28;20025;-69
2022/12/15 06:10:53;;;;;;;80.63;36.60;;;-2.30;99.90;;;;;;5053521;28;20100;-69
2022/12/15 06:13:20;;;;;;;85.97;36.80;;;-2.30;99.90;;;;;;5053209;28;20108;-70
2022/12/15 06:15:56;;;;;;;80.40;37.92;;;-2.30;99.90;;;;;;5053441;28;20049;-69
2022/12/15 06:18:22;;;;;;;82.88;38.17;;;-2.20;99.90;;;;;;5052642;28;20470;-70
2022/12/15 06:20:47;;;;;;;80.97;38.20;;;-2.30;99.90;;;;;;5053880;28;20067;-69
2022/12/15 06:23:13;;;;;;;81.63;36.75;;;-2.30;99.90;;;;;;5053228;28;20033;-69
2022/12/15 06:25:38;;;;;;;75.03;35.20;;;-2.20;99.90;;;;;;5052762;28;20036;-69
2022/12/15 06:28:04;;;;;;;80.93;38.13;;;-2.30;99.90;;;;;;5053111;28;20126;-69
2022/12/15 06:30:30;;;;;;;77.47;36.83;;;-2.30;99.90;;;;;;5052976;28;20104;-70
2022/12/15 06:32:56;;;;;;;75.78;36.58;;;-2.20;99.90;;;;;;5053402;28;20029;-67
2022/12/15 06:35:21;;;;;;;79.35;36.42;;;-2.20;99.90;;;;;;5052604;28;20478;-71
2022/12/15 06:37:47;;;;;;;74.28;37.10;;;-2.20;99.90;;;;;;5053357;28;20071;-69
2022/12/15 06:40:12;;;;;;;82.88;36.17;;;-2.20;99.90;;;;;;5053393;28;20033;-69
2022/12/15 06:42:38;;;;;;;66.95;33.88;;;-2.20;99.90;;;;;;5052350;28;20025;-70
2022/12/15 06:45:04;;;;;;;78.88;35.90;;;-2.20;99.90;;;;;;5054195;28;20082;-68
2022/12/15 06:47:30;;;;;;;80.45;36.20;;;-2.20;99.90;;;;;;5060928;28;20025;-68
2022/12/15 06:49:55;;;;;;;86.47;36.70;;;-2.00;99.90;;;;;;5056918;28;20363;-68
2022/12/15 06:52:21;;;;;;;77.85;36.63;;;-1.90;99.90;;;;;;5047264;28;20156;-70
2022/12/15 06:54:46;;;;;;;75.25;35.92;;;-1.80;99.90;;;;;;5049120;28;20377;-69
2022/12/15 06:57:12;;;;;;;72.55;36.70;;;-1.80;99.90;;;;;;5052105;28;20025;-70
2022/12/15 06:59:38;;;;;;;72.40;32.63;;;-1.80;99.90;;;;;;5058142;28;20506;-70
2022/12/15 07:02:03;;;;;;;70.82;34.20;;;-1.80;99.90;;;;;;5057040;28;20037;-69
2022/12/15 07:04:31;;;;;;;68.13;33.53;;;-1.90;99.90;;;;;;5052031;28;20051;-70
2022/12/15 07:06:57;;;;;;;77.38;35.15;;;-1.90;99.90;;;;;;5052052;28;20029;-70
2022/12/15 07:09:25;;;;;;;80.18;37.10;;;-2.00;99.90;;;;;;5051783;28;20027;-71
2022/12/15 07:11:51;;;;;;;72.03;34.90;;;-2.00;99.90;;;;;;5052079;28;20470;-69
2022/12/15 07:14:16;;;;;;;74.40;34.40;;;-1.90;99.90;;;;;;5052850;28;20028;-70
2022/12/15 07:16:42;;;;;;;72.95;35.70;;;-2.00;99.90;;;;;;5051700;28;20035;-70
2022/12/15 07:19:11;;;;;;;70.43;35.03;;;-2.00;99.90;;;;;;5053068;28;20056;-70
2022/12/15 07:21:37;;;;;;;76.38;34.40;;;-2.00;99.90;;;;;;5051516;28;20029;-70
2022/12/15 07:24:03;;;;;;;72.78;35.53;;;-2.00;99.90;;;;;;5052574;28;20040;-69
2022/12/15 07:26:29;;;;;;;69.95;34.25;;;-2.00;99.90;;;;;;5051397;28;20079;-70
2022/12/15 07:28:54;;;;;;;75.20;35.00;;;-2.00;99.90;;;;;;5051962;28;20417;-71
2022/12/15 07:31:21;;;;;;;79.00;36.67;;;-2.00;99.90;;;;;;5052029;28;20029;-71
2022/12/15 07:33:47;;;;;;;74.25;34.83;;;-1.90;99.90;;;;;;5052077;28;20040;-70
2022/12/15 07:36:12;;;;;;;72.95;36.05;;;-1.90;99.90;;;;;;5052249;28;20025;-70
2022/12/15 07:38:38;;;;;;;74.75;35.92;;;-1.90;99.90;;;;;;5051386;28;20230;-70
2022/12/15 07:41:06;;;;;;;77.90;36.03;;;-1.90;99.90;;;;;;5034731;28;20056;-70
2022/12/15 07:43:31;;;;;;;71.88;34.45;;;-1.80;99.90;;;;;;5051009;28;20029;-70
2022/12/15 07:45:57;;;;;;;74.53;34.28;;;-1.80;99.90;;;;;;5052116;28;20386;-70
2022/12/15 07:48:23;;;;;;;76.88;36.22;;;-1.70;99.90;;;;;;5051006;28;20150;-70
2022/12/15 07:50:50;;;;;;;68.35;33.38;;;-1.70;99.90;;;;;;5053375;28;20025;-69
2022/12/15 07:53:16;;;;;;;74.03;35.25;;;-1.70;99.90;;;;;;5051808;28;20033;-69
2022/12/15 07:55:41;;;;;;;75.13;34.13;;;-1.60;99.90;;;;;;5051370;28;20192;-69
2022/12/15 07:58:07;;;;;;;71.38;34.13;;;-1.60;99.90;;;;;;5053420;28;20390;-70
2022/12/15 08:00:33;;;;;;;69.80;32.17;;;-1.60;99.90;;;;;;5061842;28;20036;-70
2022/12/15 08:03:01;;;;;;;69.68;34.05;;;-1.50;99.90;;;;;;5046150;28;20462;-69
2022/12/15 08:05:27;;;;;;;78.70;33.92;;;-1.40;99.90;;;;;;5051026;28;20037;-70
2022/12/15 08:07:52;;;;;;;70.65;31.60;;;-1.40;99.90;;;;;;5054718;28;20028;-70
2022/12/15 08:10:18;;;;;;;70.43;31.70;;;-1.40;99.90;;;;;;5059513;28;20028;-70
2022/12/15 08:12:43;;;;;;;69.88;33.40;;;-1.40;99.90;;;;;;5050138;28;20025;-70
2022/12/15 08:15:10;;;;;;;66.53;30.55;;;-1.40;99.90;;;;;;5051634;28;20458;-70
2022/12/15 08:17:36;;;;;;;65.55;31.67;;;-1.40;99.90;;;;;;5036216;28;20029;-70
2022/12/15 08:20:02;;;;;;;64.88;31.77;;;-1.40;99.90;;;;;;5051674;28;20044;-69
2022/12/15 08:22:28;;;;;;;71.25;32.17;;;-1.30;99.90;;;;;;5050481;28;20029;-69
2022/12/15 08:24:53;;;;;;;70.05;31.60;;;-1.20;99.90;;;;;;5051738;28;20032;-69
2022/12/15 08:27:20;;;;;;;65.35;32.60;;;-1.20;99.90;;;;;;5050969;28;20041;-69
2022/12/15 08:29:46;;;;;;;73.90;31.48;;;-1.10;99.90;;;;;;5050699;28;20036;-69
2022/12/15 08:32:11;;;;;;;65.30;29.25;;;-1.10;99.90;;;;;;5050785;28;20041;-69
2022/12/15 08:34:37;;;;;;;66.30;31.25;;;-1.10;99.90;;;;;;5050890;28;20079;-69
2022/12/15 08:37:03;;;;;;;61.40;30.70;;;-1.10;99.90;;;;;;5050756;28;20024;-70
2022/12/15 08:39:29;;;;;;;69.07;31.73;;;-1.00;99.90;;;;;;5050650;28;20029;-70
2022/12/15 08:41:55;;;;;;;69.47;32.88;;;-0.90;99.90;;;;;;5050974;28;20091;-70
2022/12/15 08:44:21;;;;;;;70.05;32.20;;;-0.90;99.90;;;;;;5051090;28;20106;-70
2022/12/15 08:46:47;;;;;;;72.05;33.30;;;-0.80;99.90;;;;;;5050779;28;20033;-69
2022/12/15 08:49:12;;;;;;;71.70;33.47;;;-0.80;99.90;;;;;;5051303;28;20029;-70
2022/12/15 08:51:38;;;;;;;67.13;32.65;;;-0.80;99.90;;;;;;5056037;28;20024;-70
2022/12/15 08:54:04;;;;;;;72.13;32.92;;;-0.70;99.90;;;;;;5058333;28;20106;-71
2022/12/15 08:56:29;;;;;;;71.05;31.42;;;-0.70;99.90;;;;;;5049990;28;20028;-70
2022/12/15 08:58:58;;;;;;;70.00;30.05;;;-0.50;99.90;;;;;;5051250;28;20079;-69
2022/12/15 09:01:26;;;;;;;70.25;30.85;;;-0.60;99.90;;;;;;5049605;28;20475;-70
2022/12/15 09:03:53;;;;;;;68.15;30.65;;;-0.50;99.90;;;;;;5051302;28;20025;-70
2022/12/15 09:06:21;;;;;;;66.85;30.92;;;-0.60;99.90;;;;;;5051101;28;20060;-70
2022/12/15 09:08:47;;;;;;;72.07;30.77;;;-0.50;99.90;;;;;;5050343;28;20047;-71
2022/12/15 09:11:13;;;;;;;66.50;29.55;;;-0.40;99.90;;;;;;5051301;28;20052;-71
2022/12/15 09:13:38;;;;;;;63.45;28.95;;;-0.30;99.90;;;;;;5052378;28;20701;-70
2022/12/15 09:16:06;;;;;;;68.15;30.17;;;-0.30;99.90;;;;;;5064513;28;20040;-70
2022/12/15 09:18:33;;;;;;;69.05;30.02;;;-0.30;99.90;;;;;;5053055;28;20032;-69
2022/12/15 09:21:04;;;;;;;67.00;30.60;;;-0.30;99.90;;;;;;5051060;28;20482;-70
2022/12/15 09:23:30;;;;;;;67.97;31.58;;;-0.30;99.90;;;;;;5049376;28;20029;-69
2022/12/15 09:26:07;;;;;;;64.63;31.25;;;-0.20;99.90;;;;;;5051199;28;20547;-70
2022/12/15 09:28:33;;;;;;;67.20;29.38;;;-0.10;99.90;;;;;;5049223;28;20406;-69
2022/12/15 09:31:07;;;;;;;66.90;31.25;;;-0.10;99.90;;;;;;5051755;28;20077;-70
2022/12/15 09:33:33;;;;;;;67.35;29.27;;;0.00;99.90;;;;;;5053724;28;20033;-70
2022/12/15 09:35:59;;;;;;;63.20;29.33;;;0.10;99.90;;;;;;5054515;28;20013;-70
2022/12/15 09:38:24;;;;;;;63.75;27.77;;;0.10;99.90;;;;;;5054989;28;20122;-70
2022/12/15 09:40:50;;;;;;;62.42;30.35;;;0.10;99.90;;;;;;5054834;28;20077;-71
2022/12/15 09:43:20;;;;;;;65.72;29.20;;;0.20;99.90;;;;;;5054237;28;20093;-70
2022/12/15 09:45:58;;;;;;;66.20;29.65;;;0.30;99.90;;;;;;5053728;28;20056;-69
2022/12/15 09:48:35;;;;;;;67.07;30.13;;;0.30;99.90;;;;;;5053092;28;20036;-70
2022/12/15 09:51:03;;;;;;;70.35;31.73;;;0.30;99.90;;;;;;5054900;28;20104;-70
2022/12/15 09:53:30;;;;;;;63.05;30.08;;;0.30;99.90;;;;;;5053346;28;20025;-70
2022/12/15 09:56:03;;;;;;;63.70;30.15;;;0.30;99.90;;;;;;5054264;28;20029;-69
2022/12/15 09:58:47;;;;;;;62.33;29.20;;;0.40;99.90;;;;;;5041796;28;20029;-70
2022/12/15 10:01:34;;;;;;;63.28;29.25;;;0.40;99.90;;;;;;5053227;28;20036;-70
2022/12/15 10:04:18;;;;;;;57.03;27.95;;;0.40;99.90;;;;;;5050116;28;20032;-70
2022/12/15 10:07:16;;;;;;;57.65;27.58;;;0.40;99.90;;;;;;5060288;28;20036;-70
2022/12/15 10:09:42;;;;;;;62.17;28.25;;;0.40;99.90;;;;;;5046243;28;20048;-72
2022/12/15 10:12:22;;;;;;;59.70;28.60;;;0.50;99.90;;;;;;5050598;28;20033;-71
2022/12/15 10:15:17;;;;;;;60.15;29.10;;;0.60;99.90;;;;;;5050735;28;20029;-70
2022/12/15 10:17:47;;;;;;;61.10;28.40;;;0.60;99.90;;;;;;5034755;28;20061;-70
2022/12/15 10:20:19;;;;;;;63.20;28.48;;;0.60;99.90;;;;;;5048491;28;20029;-70
2022/12/15 10:22:46;;;;;;;60.30;27.65;;;0.50;99.90;;;;;;5033800;28;20033;-69
2022/12/15 10:25:17;;;;;;;57.67;28.60;;;0.40;99.90;;;;;;5049284;28;20405;-69
2022/12/15 10:27:54;;;;;;;59.20;30.10;;;0.40;99.90;;;;;;5042736;28;20045;-69
2022/12/15 10:30:20;;;;;;;64.57;30.05;;;0.50;99.90;;;;;;5055507;28;20029;-70
2022/12/15 10:33:10;;;;;;;62.78;29.80;;;0.40;99.90;;;;;;5045120;28;20471;-69
2022/12/15 10:35:38;;;;;;;60.40;29.55;;;0.40;99.90;;;;;;5048571;28;20040;-70
2022/12/15 10:38:20;;;;;;;65.35;32.65;;;0.40;99.90;;;;;;5043182;28;20040;-69
2022/12/15 10:40:50;;;;;;;63.33;30.05;;;0.50;99.90;;;;;;5053322;28;20032;-77
2022/12/15 10:43:25;;;;;;;65.20;30.88;;;0.50;99.90;;;;;;5043323;28;20033;-71
2022/12/15 10:46:20;;;;;;;66.38;30.40;;;0.40;99.90;;;;;;5052859;28;20104;-71
2022/12/15 10:48:57;;;;;;;65.10;30.85;;;0.40;99.90;;;;;;5040733;28;20040;-70
2022/12/15 10:51:35;;;;;;;59.45;29.23;;;0.40;99.90;;;;;;5052309;28;20041;-68
2022/12/15 10:54:04;;;;;;;61.20;30.33;;;0.40;99.90;;;;;;5047158;28;20530;-70
2022/12/15 10:56:31;;;;;;;71.07;31.27;;;0.40;99.90;;;;;;5050757;28;20626;-69
2022/12/15 10:59:35;;;;;;;67.15;31.38;;;0.30;99.90;;;;;;5032459;28;20331;-68
2022/12/15 11:02:19;;;;;;;64.38;30.90;;;0.30;99.90;;;;;;5047992;28;20402;-67
2022/12/15 11:04:54;;;;;;;60.80;29.90;;;0.30;99.90;;;;;;5051571;28;20029;-70
2022/12/15 11:07:20;;;;;;;60.58;30.23;;;0.40;99.90;;;;;;5046707;28;20029;-72
2022/12/15 11:09:47;;;;;;;69.80;29.98;;;0.40;99.90;;;;;;5034468;28;20387;-70
2022/12/15 11:15:22;;;;;;;61.85;29.08;;;0.50;99.90;;;;;;5052697;28;20500;-70
2022/12/15 11:18:12;;;;;;;56.33;29.05;;;0.50;99.90;;;;;;5045444;28;20049;-70
2022/12/15 11:20:42;;;;;;;65.15;31.05;;;0.60;99.90;;;;;;5051408;28;20025;-68
2022/12/15 11:23:16;;;;;;;62.17;30.55;;;0.70;99.90;;;;;;5047857;28;20029;-69
2022/12/15 11:25:47;;;;;;;58.25;29.73;;;0.70;99.90;;;;;;5053590;28;20120;-69
2022/12/15 11:28:17;;;;;;;58.67;29.13;;;0.70;99.90;;;;;;5049393;28;20098;-70
2022/12/15 11:30:59;;;;;;;62.95;29.45;;;0.80;99.90;;;;;;5051523;28;20533;-70
2022/12/15 11:33:24;;;;;;;57.20;28.60;;;0.80;99.90;;;;;;5041783;28;20120;-69
2022/12/15 11:35:59;;;;;;;65.20;30.73;;;0.80;99.90;;;;;;5052022;28;20107;-70
2022/12/15 11:38:43;;;;;;;60.30;28.52;;;0.80;99.90;;;;;;5050741;28;20036;-70
2022/12/15 11:41:50;;;;;;;61.40;29.75;;;0.90;99.90;;;;;;5039155;28;20059;-71
2022/12/15 11:44:44;;;;;;;57.83;28.38;;;0.80;99.90;;;;;;4989277;28;20483;-69
2022/12/15 11:47:44;;;;;;;63.17;29.77;;;0.80;99.90;;;;;;4989131;28;20045;-69
2022/12/15 11:50:39;;;;;;;58.80;28.52;;;0.80;99.90;;;;;;5020892;28;20115;-68
2022/12/15 11:53:39;;;;;;;59.58;28.92;;;0.90;99.90;;;;;;5033955;28;20034;-69
2022/12/15 11:56:20;;;;;;;60.92;29.88;;;0.90;99.90;;;;;;5041168;28;20037;-70
2022/12/15 11:59:03;;;;;;;62.45;29.50;;;0.90;99.90;;;;;;5049493;28;20129;-70
2022/12/15 12:01:41;;;;;;;61.00;29.58;;;0.90;99.90;;;;;;5050782;28;20032;-70
2022/12/15 12:04:44;;;;;;;57.30;27.45;;;0.90;99.90;;;;;;5042807;28;20025;-70
2022/12/15 12:07:24;;;;;;;57.63;27.83;;;0.90;99.90;;;;;;5050315;28;20029;-67
2022/12/15 12:10:14;;;;;;;73.75;30.08;;;1.00;99.90;;;;;;5048373;28;20433;-69
2022/12/15 12:12:44;;;;;;;59.28;29.23;;;1.00;99.90;;;;;;5037284;28;20559;-69
2022/12/15 12:15:12;;;;;;;61.10;29.92;;;1.00;99.90;;;;;;5051602;28;20100;-68
2022/12/15 12:17:52;;;;;;;53.55;28.45;;;0.90;99.90;;;;;;5044464;28;20430;-69
2022/12/15 12:20:22;;;;;;;61.03;29.73;;;0.90;99.90;;;;;;5051099;28;20025;-69
2022/12/15 12:22:54;;;;;;;61.72;29.10;;;1.00;99.90;;;;;;5046981;28;20410;-69
2022/12/15 12:25:21;;;;;;;53.22;28.02;;;1.10;99.90;;;;;;5050788;28;20458;-68
2022/12/15 12:28:14;;;;;;;55.05;27.77;;;1.10;99.90;;;;;;5046796;28;20060;-72
2022/12/15 12:30:46;;;;;;;55.78;29.17;;;1.10;99.90;;;;;;5058441;28;20600;-68
2022/12/15 12:33:33;;;;;;;53.20;27.80;;;1.00;99.90;;;;;;5036905;28;20380;-68
2022/12/15 12:36:13;;;;;;;62.97;28.48;;;1.00;99.90;;;;;;5050546;28;20075;-69
2022/12/15 12:38:52;;;;;;;60.55;29.70;;;1.00;99.90;;;;;;5040834;28;20021;-70
2022/12/15 12:41:43;;;;;;;63.80;29.73;;;1.10;99.90;;;;;;5050429;28;20070;-68
2022/12/15 12:44:31;;;;;;;61.97;29.92;;;1.20;99.90;;;;;;5048064;28;20122;-69
2022/12/15 12:47:03;;;;;;;56.85;27.80;;;1.40;99.90;;;;;;5049756;28;20029;-69
2022/12/15 12:49:40;;;;;;;58.55;30.13;;;1.60;99.90;;;;;;5037992;28;20043;-69
2022/12/15 12:52:20;;;;;;;55.53;27.50;;;1.70;99.90;;;;;;5048399;28;20454;-68
2022/12/15 12:54:56;;;;;;;60.40;29.03;;;1.80;99.90;;;;;;5043030;28;20029;-69
2022/12/15 12:57:41;;;;;;;61.70;28.40;;;1.90;99.90;;;;;;5042048;28;20284;-72
2022/12/15 13:00:06;;;;;;;55.63;30.17;;;1.90;99.90;;;;;;5047651;28;20478;-70
2022/12/15 13:02:36;;;;;;;51.13;28.45;;;1.90;99.90;;;;;;5044176;28;20037;-68
2022/12/15 13:05:21;;;;;;;51.13;27.17;;;1.80;99.90;;;;;;5048194;28;20051;-68
2022/12/15 13:08:13;;;;;;;53.75;29.23;;;1.80;99.90;;;;;;5042249;28;20029;-68
2022/12/15 13:10:41;;;;;;;54.33;28.42;;;1.70;99.90;;;;;;5018153;28;20187;-69
2022/12/15 13:13:25;;;;;;;59.10;28.48;;;1.60;99.90;;;;;;5043435;28;20079;-69
2022/12/15 13:16:05;;;;;;;58.13;27.60;;;1.60;99.90;;;;;;5050741;28;20072;-70
2022/12/15 13:19:05;;;;;;;58.28;29.30;;;1.40;99.90;;;;;;5036544;28;20021;-70
2022/12/15 13:21:43;;;;;;;56.53;27.15;;;1.30;99.90;;;;;;5048681;28;20104;-70
2022/12/15 13:24:31;;;;;;;52.08;27.63;;;1.20;99.90;;;;;;5046352;28;20109;-70
2022/12/15 13:27:09;;;;;;;53.90;28.27;;;1.20;99.90;;;;;;5048067;28;20459;-70
2022/12/15 13:29:36;;;;;;;61.17;29.25;;;1.10;99.90;;;;;;5047863;28;20037;-71
2022/12/15 13:32:02;;;;;;;55.22;29.23;;;1.10;99.90;;;;;;5048576;28;20478;-70
2022/12/15 13:34:35;;;;;;;61.53;30.45;;;1.00;99.90;;;;;;5048453;28;20040;-70
2022/12/15 13:37:01;;;;;;;61.10;28.70;;;1.00;99.90;;;;;;5048038;28;20037;-69
2022/12/15 13:39:27;;;;;;;55.45;27.88;;;1.00;99.90;;;;;;5049458;28;20032;-70
2022/12/15 13:42:01;;;;;;;51.25;26.42;;;0.90;99.90;;;;;;5050296;28;20432;-69
2022/12/15 13:45:05;;;;;;;55.78;26.80;;;0.90;99.90;;;;;;5036583;28;20075;-69
2022/12/15 13:47:32;;;;;;;52.35;26.15;;;0.80;99.90;;;;;;5007687;28;20041;-69
2022/12/15 13:50:02;;;;;;;53.03;26.08;;;0.70;99.90;;;;;;5047316;28;20037;-69
2022/12/15 13:52:32;;;;;;;54.47;27.30;;;0.70;99.90;;;;;;5048777;28;20033;-69
2022/12/15 13:55:00;;;;;;;51.72;26.42;;;0.60;99.90;;;;;;5050179;28;20112;-69
2022/12/15 13:57:30;;;;;;;52.90;25.90;;;0.60;99.90;;;;;;5049641;28;20025;-69
2022/12/15 14:00:17;;;;;;;54.60;25.63;;;0.60;99.90;;;;;;5050408;28;20025;-69
2022/12/15 14:02:44;;;;;;;52.80;24.55;;;0.50;99.90;;;;;;5049443;28;20531;-69
2022/12/15 14:05:16;;;;;;;58.35;27.33;;;0.50;99.90;;;;;;5050446;28;20037;-68
2022/12/15 14:07:45;;;;;;;55.22;26.70;;;0.50;99.90;;;;;;5050142;28;20148;-69
2022/12/15 14:10:28;;;;;;;52.55;25.27;;;0.50;99.90;;;;;;5050782;28;20029;-69
2022/12/15 14:12:56;;;;;;;47.92;24.20;;;0.40;99.90;;;;;;5050079;28;20450;-69
2022/12/15 14:15:28;;;;;;;52.75;25.55;;;0.40;99.90;;;;;;5049513;28;20048;-70
2022/12/15 14:17:55;;;;;;;58.05;27.30;;;0.40;99.90;;;;;;5039248;28;20029;-69
2022/12/15 14:20:26;;;;;;;53.22;26.45;;;0.50;99.90;;;;;;5053581;28;20112;-70
2022/12/15 14:22:53;;;;;;;55.78;26.98;;;0.40;99.90;;;;;;5053766;28;20091;-69
2022/12/15 14:25:23;;;;;;;57.65;26.25;;;0.40;99.90;;;;;;5053667;28;20033;-69
2022/12/15 14:27:49;;;;;;;52.03;24.77;;;0.40;99.90;;;;;;5052966;28;20041;-68
2022/12/15 14:30:21;;;;;;;53.60;26.02;;;0.40;99.90;;;;;;5053940;28;20032;-68
2022/12/15 14:32:51;;;;;;;59.15;26.52;;;0.30;99.90;;;;;;5052353;28;20106;-68
2022/12/15 14:35:36;;;;;;;57.05;26.77;;;0.30;99.90;;;;;;5053404;28;20482;-69
2022/12/15 14:38:06;;;;;;;53.92;26.00;;;0.40;99.90;;;;;;5053273;28;20444;-69
2022/12/15 14:40:34;;;;;;;54.75;26.13;;;0.30;99.90;;;;;;5053061;28;20033;-68
2022/12/15 14:43:00;;;;;;;57.90;26.88;;;0.30;99.90;;;;;;5052846;28;20486;-69
2022/12/15 14:45:29;;;;;;;51.97;25.77;;;0.30;99.90;;;;;;5053313;28;20117;-69
2022/12/15 14:48:07;;;;;;;53.75;25.80;;;0.20;99.90;;;;;;5054488;28;20029;-68
2022/12/15 14:50:33;;;;;;;57.25;25.30;;;0.20;99.90;;;;;;5052565;28;20021;-68
2022/12/15 14:53:04;;;;;;;53.15;27.30;;;0.20;99.90;;;;;;5052117;28;20478;-69
2022/12/15 14:55:35;;;;;;;59.88;26.88;;;0.20;99.90;;;;;;5052712;28;20075;-68
2022/12/15 14:58:02;;;;;;;56.05;26.90;;;0.20;99.90;;;;;;5052625;28;20100;-68
2022/12/15 15:00:35;;;;;;;58.22;27.90;;;0.20;99.90;;;;;;5052698;28;20036;-68
2022/12/15 15:03:13;;;;;;;60.63;27.27;;;0.10;99.90;;;;;;5044781;28;20741;-69
2022/12/15 15:05:43;;;;;;;55.58;27.15;;;0.10;99.90;;;;;;5054968;28;20358;-68
2022/12/15 15:08:28;;;;;;;54.53;25.02;;;0.10;99.90;;;;;;5049235;28;20394;-68
2022/12/15 15:11:28;;;;;;;60.88;28.20;;;0.10;99.90;;;;;;5048466;28;20037;-68
2022/12/15 15:14:03;;;;;;;59.40;27.00;;;0.10;99.90;;;;;;5041262;28;20379;-68
2022/12/15 15:16:29;;;;;;;54.90;27.92;;;0.20;99.90;;;;;;5051306;28;20029;-67